Time;durP1;ratioP1;P1;durP2;ratioP2;P2;SDS_P1;SDS_P2;PMS_P1;PMS_P2;Temp;Humidity;BMP_temperature;BMP_pressure;BME280_temperature;BME280_humidity;BME280_pressure;Samples;Min_cycle;Max_cycle;Signal;HPM_P1;HPM_P2
2022/06/02 00:00:07;;;;;;;;;;;11.50;1.00;;;;;;5036202;28;21199;-84
2022/06/02 00:02:53;;;;;;;;;;;11.50;99.90;;;;;;5035815;28;19921;-84
2022/06/02 00:05:25;;;;;;;;;;;11.40;99.90;;;;;;5059171;28;19914;-85
2022/06/02 00:07:50;;;;;;;;;;;11.40;1.00;;;;;;5035164;28;19990;-85
2022/06/02 00:10:40;;;;;;;;;;;11.40;1.00;;;;;;5030162;28;19913;-82
2022/06/02 00:13:17;;;;;;;;;;;11.40;1.00;;;;;;5046960;28;19984;-84
2022/06/02 00:15:52;;;;;;;;;;;11.30;1.00;;;;;;5048121;28;19948;-85
2022/06/02 00:18:30;;;;;;;;;;;11.30;99.90;;;;;;5049929;28;19913;-85
2022/06/02 00:21:08;;;;;;;;;;;11.30;99.90;;;;;;5053969;28;19923;-84
2022/06/02 00:23:34;;;;;;;;;;;11.20;1.00;;;;;;5042092;28;19920;-85
2022/06/02 00:26:12;;;;;;;;;;;11.20;1.00;;;;;;5053694;28;19928;-84
2022/06/02 00:28:42;;;;;;;;;;;11.20;1.80;;;;;;5047769;28;19988;-84
2022/06/02 00:31:19;;;;;;;;;;;11.20;67.30;;;;;;5051564;28;19913;-84
2022/06/02 00:33:59;;;;;;;;;;;11.10;1.00;;;;;;5055346;28;19913;-83
2022/06/02 00:36:29;;;;;;;;;;;11.10;65.20;;;;;;5035350;28;19913;-84
2022/06/02 00:38:57;;;;;;;;;;;11.10;99.90;;;;;;5046550;28;19917;-85
2022/06/02 00:41:35;;;;;;;;;;;11.10;99.90;;;;;;5036718;28;19920;-84
2022/06/02 00:44:18;;;;;;;;;;;11.00;99.90;;;;;;5047941;28;19928;-84
2022/06/02 00:46:58;;;;;;;;;;;11.00;1.00;;;;;;5035380;28;19920;-85
2022/06/02 00:49:34;;;;;;;;;;;11.00;1.00;;;;;;5026582;28;19914;-84
2022/06/02 00:52:14;;;;;;;;;;;10.90;1.00;;;;;;5054377;28;20411;-84
2022/06/02 00:57:42;;;;;;;;;;;10.80;99.90;;;;;;5044015;28;19920;-84
2022/06/02 01:00:08;;;;;;;;;;;10.80;99.90;;;;;;5037019;28;19917;-84
2022/06/02 01:02:56;;;;;;;;;;;10.80;1.00;;;;;;5031175;28;19956;-85
2022/06/02 01:05:31;;;;;;;;;;;10.80;1.00;;;;;;5032297;28;20520;-84
2022/06/02 01:08:02;;;;;;;;;;;10.70;1.00;;;;;;5048913;28;19912;-85
2022/06/02 01:10:28;;;;;;;;;;;10.70;1.00;;;;;;5042694;28;19917;-84
2022/06/02 01:12:56;;;;;;;;;;;10.70;1.00;;;;;;5036904;28;20360;-84
2022/06/02 01:15:35;;;;;;;;;;;10.60;61.50;;;;;;5034719;28;19935;-84
2022/06/02 01:18:09;;;;;;;;;;;10.60;99.90;;;;;;5057230;28;19913;-84
2022/06/02 01:20:35;;;;;;;;;;;10.60;99.90;;;;;;5054040;28;19994;-84
2022/06/02 01:23:03;;;;;;;;;;;10.50;99.90;;;;;;5055357;28;19920;-85
2022/06/02 01:25:49;;;;;;;;;;;10.50;99.90;;;;;;5037985;28;19920;-84
2022/06/02 01:28:32;;;;;;;;;;;10.40;99.90;;;;;;5031958;28;20439;-85
2022/06/02 01:31:16;;;;;;;;;;;10.40;1.00;;;;;;5037040;28;20007;-85
2022/06/02 01:34:00;;;;;;;;;;;10.40;99.90;;;;;;5048288;28;19935;-84
2022/06/02 01:36:31;;;;;;;;;;;10.40;1.00;;;;;;5053100;28;19917;-84
2022/06/02 01:39:04;;;;;;;;;;;10.40;1.00;;;;;;5055923;28;19913;-84
2022/06/02 01:41:30;;;;;;;;;;;10.40;1.00;;;;;;5038112;28;20266;-84
2022/06/02 01:43:59;;;;;;;;;;;10.30;1.00;;;;;;5034474;28;20446;-85
2022/06/02 01:46:27;;;;;;;;;;;10.30;1.00;;;;;;5050889;28;19913;-85
2022/06/02 01:48:58;;;;;;;;;;;10.30;1.00;;;;;;5048778;28;19976;-84
2022/06/02 01:51:23;;;;;;;;;;;10.30;1.00;;;;;;5055734;28;19913;-84
2022/06/02 01:53:52;;;;;;;;;;;10.30;1.00;;;;;;5034586;28;19919;-84
2022/06/02 01:56:26;;;;;;;;;;;10.30;1.00;;;;;;5055574;28;20125;-85
2022/06/02 01:58:59;;;;;;;;;;;10.30;1.00;;;;;;5054408;28;19956;-85
2022/06/02 02:01:44;;;;;;;;;;;10.30;1.00;;;;;;5037309;28;20292;-84
2022/06/02 02:04:28;;;;;;;;;;;10.20;17.80;;;;;;5037773;28;19913;-84
2022/06/02 02:07:01;;;;;;;;;;;10.20;22.70;;;;;;5054849;28;19963;-83
2022/06/02 02:09:53;;;;;;;;;;;10.20;94.90;;;;;;5053140;28;19912;-86
2022/06/02 02:12:39;;;;;;;;;;;10.20;99.90;;;;;;5029064;28;19975;-85
2022/06/02 02:15:12;;;;;;;;;;;10.10;99.90;;;;;;5043196;28;19913;-85
2022/06/02 02:17:38;;;;;;;;;;;10.10;99.90;;;;;;5055007;28;19913;-84
2022/06/02 02:20:27;;;;;;;;;;;10.10;99.90;;;;;;5034372;28;20011;-84
2022/06/02 02:23:11;;;;;;;;;;;10.10;99.90;;;;;;4999247;28;19921;-84
2022/06/02 02:25:36;;;;;;;;;;;10.10;99.90;;;;;;5057189;28;19916;-85
2022/06/02 02:28:14;;;;;;;;;;;10.00;99.90;;;;;;5036126;28;20015;-84
2022/06/02 02:30:42;;;;;;;;;;;10.00;99.90;;;;;;5047571;28;19925;-85
2022/06/02 02:33:26;;;;;;;;;;;10.00;99.90;;;;;;5034736;28;19928;-85
2022/06/02 02:36:00;;;;;;;;;;;10.00;99.90;;;;;;5047839;28;19913;-85
2022/06/02 02:38:42;;;;;;;;;;;10.00;99.90;;;;;;5039104;28;19913;-84
2022/06/02 02:41:12;;;;;;;;;;;10.00;99.90;;;;;;5053635;28;19980;-84
2022/06/02 02:43:44;;;;;;;;;;;10.00;99.90;;;;;;5052606;28;19919;-84
2022/06/02 02:46:13;;;;;;;;;;;10.00;99.90;;;;;;5056595;28;19920;-85
2022/06/02 02:48:54;;;;;;;;;;;9.90;99.90;;;;;;5055492;28;19922;-84
2022/06/02 02:51:39;;;;;;;;;;;9.90;99.90;;;;;;5033949;28;19913;-84
2022/06/02 02:54:21;;;;;;;;;;;9.90;99.90;;;;;;5036943;28;19913;-85
2022/06/02 02:56:49;;;;;;;;;;;9.80;99.90;;;;;;5035726;28;19913;-83
2022/06/02 02:59:18;;;;;;;;;;;9.80;99.90;;;;;;5052855;28;19982;-83
2022/06/02 03:01:51;;;;;;;;;;;9.80;99.90;;;;;;5035610;28;19916;-85
2022/06/02 03:04:23;;;;;;;;;;;9.70;99.90;;;;;;5050441;28;19913;-85
2022/06/02 03:06:52;;;;;;;;;;;9.70;99.90;;;;;;5037782;28;19912;-86
2022/06/02 03:09:22;;;;;;;;;;;9.70;99.90;;;;;;5031912;28;19949;-84
2022/06/02 03:11:54;;;;;;;;;;;9.70;99.90;;;;;;5052188;28;19924;-85
2022/06/02 03:14:34;;;;;;;;;;;9.60;99.90;;;;;;5048233;28;20059;-85
2022/06/02 03:17:18;;;;;;;;;;;9.60;99.90;;;;;;5053364;28;20358;-85
2022/06/02 03:20:01;;;;;;;;;;;9.60;99.90;;;;;;5050875;28;19917;-84
2022/06/02 03:22:29;;;;;;;;;;;9.50;99.90;;;;;;5038965;28;19948;-84
2022/06/02 03:25:08;;;;;;;;;;;9.50;99.90;;;;;;5048669;28;19967;-85
2022/06/02 03:27:53;;;;;;;;;;;9.50;99.90;;;;;;5055071;28;19920;-85
2022/06/02 03:30:18;;;;;;;;;;;9.50;99.90;;;;;;5054096;28;19920;-86
2022/06/02 03:33:02;;;;;;;;;;;9.50;99.90;;;;;;5054065;28;19916;-85
2022/06/02 03:35:31;;;;;;;;;;;9.50;99.90;;;;;;5051840;28;20293;-85
2022/06/02 03:38:14;;;;;;;;;;;9.50;1.00;;;;;;5053239;28;19921;-85
2022/06/02 03:40:59;;;;;;;;;;;9.50;1.00;;;;;;5051403;28;19978;-85
2022/06/02 03:43:30;;;;;;;;;;;9.50;99.90;;;;;;5044072;28;19913;-85
2022/06/02 03:46:04;;;;;;;;;;;9.50;99.90;;;;;;5049718;28;19912;-85
2022/06/02 03:48:36;;;;;;;;;;;9.50;99.90;;;;;;5032798;28;19967;-85
2022/06/02 03:51:14;;;;;;;;;;;9.50;99.90;;;;;;5049401;28;19916;-84
2022/06/02 03:53:51;;;;;;;;;;;9.50;99.90;;;;;;5035559;28;19919;-85
2022/06/02 03:56:36;;;;;;;;;;;9.50;99.90;;;;;;5035605;28;20399;-84
2022/06/02 03:59:23;;;;;;;;;;;;;;;;;;;;;
2022/06/02 04:01:52;;;;;;;;;;;9.50;99.90;;;;;;5053078;28;20336;-85
2022/06/02 04:04:29;;;;;;;;;;;9.50;99.90;;;;;;5039516;28;19955;-84
2022/06/02 04:06:55;;;;;;;;;;;9.50;99.90;;;;;;5028108;28;20356;-85
2022/06/02 04:09:39;;;;;;;;;;;9.60;99.90;;;;;;5027923;28;19913;-84
2022/06/02 04:14:54;;;;;;;;;;;9.60;99.90;;;;;;5052546;28;19936;-84
2022/06/02 04:17:26;;;;;;;;;;;9.60;99.90;;;;;;5035247;28;20351;-86
2022/06/02 04:22:55;;;;;;;;;;;9.70;99.90;;;;;;5053245;28;19920;-84
2022/06/02 04:25:35;;;;;;;;;;;9.80;99.90;;;;;;5033220;28;20629;-85
2022/06/02 04:28:09;;;;;;;;;;;9.90;99.90;;;;;;5032760;28;19986;-84
2022/06/02 04:30:41;;;;;;;;;;;9.90;99.90;;;;;;5029559;28;19999;-84
2022/06/02 04:33:08;;;;;;;;;;;10.00;99.90;;;;;;5028978;28;19927;-85
2022/06/02 04:35:50;;;;;;;;;;;10.00;99.90;;;;;;5030527;28;19950;-85
2022/06/02 04:38:21;;;;;;;;;;;10.00;99.90;;;;;;5032452;28;19921;-85
2022/06/02 04:40:57;;;;;;;;;;;10.00;99.90;;;;;;5036163;28;19928;-85
2022/06/02 04:43:28;;;;;;;;;;;10.10;99.90;;;;;;5031525;28;19919;-84
2022/06/02 04:46:12;;;;;;;;;;;10.10;99.90;;;;;;5049392;28;20567;-84
2022/06/02 04:48:44;;;;;;;;;;;10.20;99.90;;;;;;5052554;28;20285;-85
2022/06/02 04:51:16;;;;;;;;;;;10.20;99.90;;;;;;5032770;28;19912;-85
2022/06/02 04:53:54;;;;;;;;;;;10.30;99.90;;;;;;5049434;28;19925;-84
2022/06/02 04:56:33;;;;;;;;;;;10.40;99.90;;;;;;5052814;28;19917;-84
2022/06/02 04:59:08;;;;;;;;;;;10.50;99.90;;;;;;5048159;28;19919;-85
2022/06/02 05:01:52;;;;;;;;;;;10.60;99.90;;;;;;5050080;28;20047;-84
2022/06/02 05:04:17;;;;;;;;;;;10.70;99.90;;;;;;5033018;28;20345;-85
2022/06/02 05:06:46;;;;;;;;;;;10.80;99.90;;;;;;5034976;28;19944;-85
2022/06/02 05:09:15;;;;;;;;;;;10.90;99.90;;;;;;5055072;28;19917;-85
2022/06/02 05:11:40;;;;;;;;;;;11.00;99.90;;;;;;5050459;28;19912;-85
2022/06/02 05:14:14;;;;;;;;;;;11.10;99.90;;;;;;5052006;28;19932;-85
2022/06/02 05:16:40;;;;;;;;;;;11.20;99.90;;;;;;5031587;28;19920;-84
2022/06/02 05:19:17;;;;;;;;;;;11.30;99.90;;;;;;5028119;28;19917;-85
2022/06/02 05:22:02;;;;;;;;;;;11.40;91.70;;;;;;5031913;28;19925;-85
2022/06/02 05:24:36;;;;;;;;;;;11.50;8.60;;;;;;5050483;28;19919;-84
2022/06/02 05:27:16;;;;;;;;;;;11.60;1.00;;;;;;5034098;28;19928;-84
2022/06/02 05:29:50;;;;;;;;;;;11.70;1.00;;;;;;5049595;28;19941;-85
2022/06/02 05:32:34;;;;;;;;;;;11.80;1.00;;;;;;5050496;28;19920;-84
2022/06/02 05:35:17;;;;;;;;;;;11.90;1.00;;;;;;5036118;28;19921;-84
2022/06/02 05:38:03;;;;;;;;;;;12.10;1.00;;;;;;5052217;28;19919;-83
2022/06/02 05:40:38;;;;;;;;;;;12.30;1.00;;;;;;5053957;28;19998;-85
2022/06/02 05:43:13;;;;;;;;;;;12.60;99.90;;;;;;5034546;28;19924;-84
2022/06/02 05:45:41;;;;;;;;;;;12.80;99.90;;;;;;5053392;28;19912;-84
2022/06/02 05:48:24;;;;;;;;;;;13.00;99.90;;;;;;5035983;28;19919;-84
2022/06/02 05:51:01;;;;;;;;;;;13.20;1.00;;;;;;5053537;28;20236;-84
2022/06/02 05:53:53;;;;;;;;;;;13.30;99.90;;;;;;5040866;28;19971;-82
2022/06/02 05:56:27;;;;;;;;;;;13.50;46.50;;;;;;5055921;28;20123;-83
2022/06/02 05:59:05;;;;;;;;;;;13.80;1.00;;;;;;5052980;28;19928;-83
2022/06/02 06:01:42;;;;;;;;;;;14.10;99.90;;;;;;5050143;28;20347;-82
2022/06/02 06:04:08;;;;;;;;;;;14.80;99.90;;;;;;5035066;28;19975;-82
2022/06/02 06:06:42;;;;;;;;;;;16.10;1.00;;;;;;5036273;28;20372;-82
2022/06/02 06:09:14;;;;;;;;;;;18.70;1.00;;;;;;5035125;28;19912;-82
2022/06/02 06:11:58;;;;;;;;;;;22.30;99.90;;;;;;5029192;28;19914;-83
2022/06/02 06:14:30;;;;;;;;;;;25.50;99.90;;;;;;5059586;28;20444;-83
2022/06/02 06:17:05;;;;;;;;;;;28.20;99.90;;;;;;5057981;28;19919;-83
2022/06/02 06:19:37;;;;;;;;;;;30.60;99.90;;;;;;5038869;28;19920;-81
2022/06/02 06:22:26;;;;;;;;;;;32.50;99.90;;;;;;5054818;28;19927;-81
2022/06/02 06:25:11;;;;;;;;;;;33.70;99.90;;;;;;5038517;28;19916;-81
2022/06/02 06:27:46;;;;;;;;;;;34.80;99.90;;;;;;5059758;28;19912;-81
2022/06/02 06:30:21;;;;;;;;;;;36.40;99.90;;;;;;5055872;28;19917;-81
2022/06/02 06:32:58;;;;;;;;;;;37.40;99.90;;;;;;5051281;28;19993;-81
2022/06/02 06:35:31;;;;;;;;;;;38.30;99.90;;;;;;5055144;28;19913;-82
2022/06/02 06:38:16;;;;;;;;;;;38.60;99.90;;;;;;5039770;28;19991;-82
2022/06/02 06:40:56;;;;;;;;;;;38.70;99.90;;;;;;5032822;28;19974;-82
2022/06/02 06:43:22;;;;;;;;;;;39.30;99.90;;;;;;5059605;28;19917;-82
2022/06/02 06:45:47;;;;;;;;;;;40.00;99.90;;;;;;5059871;28;19959;-82
2022/06/02 06:48:14;;;;;;;;;;;40.90;99.90;;;;;;5033218;28;19916;-82
2022/06/02 06:50:44;;;;;;;;;;;42.30;99.90;;;;;;5058221;28;19935;-82
2022/06/02 06:53:09;;;;;;;;;;;42.40;99.90;;;;;;5059180;28;20530;-82
2022/06/02 06:55:59;;;;;;;;;;;43.80;99.90;;;;;;5041339;28;19913;-82
2022/06/02 06:58:34;;;;;;;;;;;44.70;99.90;;;;;;5055718;28;19920;-82
2022/06/02 07:01:06;;;;;;;;;;;46.20;99.90;;;;;;5040408;28;19976;-83
2022/06/02 07:03:35;;;;;;;;;;;46.60;99.90;;;;;;5037312;28;20426;-83
2022/06/02 07:06:21;;;;;;;;;;;46.60;99.90;;;;;;5053463;28;19920;-82
2022/06/02 07:08:52;;;;;;;;;;;48.60;99.90;;;;;;5039800;28;19913;-83
2022/06/02 07:14:24;;;;;;;;;;;49.20;99.90;;;;;;5052454;28;20007;-83
2022/06/02 07:16:56;;;;;;;;;;;49.00;99.90;;;;;;5058560;28;20292;-83
2022/06/02 07:19:45;;;;;;;;;;;49.00;99.90;;;;;;5056499;28;20026;-83
2022/06/02 07:22:30;;;;;;;;;;;50.00;99.90;;;;;;5055107;28;19917;-82
2022/06/02 07:25:15;;;;;;;;;;;50.20;99.90;;;;;;5039744;28;19921;-83
2022/06/02 07:27:43;;;;;;;;;;;50.00;98.30;;;;;;5050471;28;19913;-83
2022/06/02 07:30:27;;;;;;;;;;;48.90;94.70;;;;;;5039347;28;19916;-83
2022/06/02 07:33:11;;;;;;;;;;;49.50;94.40;;;;;;5036615;28;19964;-83
2022/06/02 07:35:37;;;;;;;;;;;50.30;93.80;;;;;;5035531;28;20006;-83
2022/06/02 07:38:02;;;;;;;;;;;50.60;93.20;;;;;;5053207;28;19917;-84
2022/06/02 07:40:34;;;;;;;;;;;50.80;91.90;;;;;;5046600;28;20369;-83
2022/06/02 07:43:20;;;;;;;;;;;51.20;90.80;;;;;;5046108;28;19920;-84
2022/06/02 07:45:48;;;;;;;;;;;51.40;89.70;;;;;;5044253;28;19962;-83
2022/06/02 07:48:40;;;;;;;;;;;52.10;88.70;;;;;;5028018;28;20381;-83
2022/06/02 07:51:12;;;;;;;;;;;52.50;88.80;;;;;;5028130;28;19916;-83
2022/06/02 07:53:49;;;;;;;;;;;51.80;83.50;;;;;;5026210;28;19913;-83
2022/06/02 07:56:15;;;;;;;;;;;50.30;77.10;;;;;;5038896;28;20257;-84
2022/06/02 07:58:59;;;;;;;;;;;49.30;72.60;;;;;;5051346;28;19923;-83
2022/06/02 08:01:32;;;;;;;;;;;50.60;74.20;;;;;;5056053;28;20375;-83
2022/06/02 08:04:04;;;;;;;;;;;51.20;76.60;;;;;;5033810;28;19917;-83
2022/06/02 08:06:39;;;;;;;;;;;51.50;75.40;;;;;;5042582;28;19912;-82
2022/06/02 08:09:21;;;;;;;;;;;50.70;72.00;;;;;;5040632;28;19913;-82
2022/06/02 08:12:06;;;;;;;;;;;51.00;71.20;;;;;;5034962;28;20383;-83
2022/06/02 08:14:41;;;;;;;;;;;51.10;69.70;;;;;;5055922;28;19940;-82
2022/06/02 08:17:13;;;;;;;;;;;51.00;68.30;;;;;;5054521;28;19916;-82
2022/06/02 08:19:51;;;;;;;;;;;49.50;60.60;;;;;;5050586;28;19937;-82
2022/06/02 08:22:28;;;;;;;;;;;49.20;59.20;;;;;;5040103;28;19959;-82
2022/06/02 08:24:59;;;;;;;;;;;49.70;59.80;;;;;;5037727;28;19913;-82
2022/06/02 08:27:31;;;;;;;;;;;49.20;57.80;;;;;;5033829;28;19921;-82
2022/06/02 08:30:03;;;;;;;;;;;49.10;56.90;;;;;;5038795;28;19921;-82
2022/06/02 08:32:40;;;;;;;;;;;48.30;55.60;;;;;;5057419;28;19924;-82
2022/06/02 08:35:08;;;;;;;;;;;49.00;56.50;;;;;;5058092;28;20440;-82
2022/06/02 08:37:46;;;;;;;;;;;49.00;56.70;;;;;;5042667;28;20011;-82
2022/06/02 08:40:17;;;;;;;;;;;46.50;50.00;;;;;;5036009;28;20199;-82
2022/06/02 08:42:53;;;;;;;;;;;46.60;51.60;;;;;;5033210;28;19917;-82
2022/06/02 08:45:19;;;;;;;;;;;47.20;53.70;;;;;;5033496;28;19934;-82
2022/06/02 08:48:05;;;;;;;;;;;48.30;55.80;;;;;;5050707;28;19980;-82
2022/06/02 08:50:39;;;;;;;;;;;48.90;57.50;;;;;;5055873;28;20012;-82
2022/06/02 08:53:29;;;;;;;;;;;49.20;58.00;;;;;;5037805;28;19920;-82
2022/06/02 08:56:13;;;;;;;;;;;48.80;55.70;;;;;;5058005;28;19913;-83
2022/06/02 08:58:58;;;;;;;;;;;48.90;54.60;;;;;;5058456;28;19939;-83
2022/06/02 09:01:42;;;;;;;;;;;46.10;47.70;;;;;;5049442;28;19924;-83
2022/06/02 09:04:16;;;;;;;;;;;41.80;40.00;;;;;;5048490;28;19920;-83
2022/06/02 09:06:55;;;;;;;;;;;41.10;39.70;;;;;;5057230;28;19913;-82
2022/06/02 09:09:37;;;;;;;;;;;39.60;37.50;;;;;;5040318;28;19935;-80
2022/06/02 09:12:21;;;;;;;;;;;37.00;32.10;;;;;;5038168;28;19932;-81
2022/06/02 09:15:02;;;;;;;;;;;35.00;31.10;;;;;;5041996;28;20393;-81
2022/06/02 09:17:46;;;;;;;;;;;32.50;28.60;;;;;;5056394;28;19921;-80
2022/06/02 09:20:29;;;;;;;;;;;31.20;28.50;;;;;;5036165;28;19920;-80
2022/06/02 09:23:13;;;;;;;;;;;35.20;41.90;;;;;;5038572;28;19913;-81
2022/06/02 09:25:45;;;;;;;;;;;39.20;53.50;;;;;;5051910;28;19936;-82
2022/06/02 09:28:29;;;;;;;;;;;40.90;56.80;;;;;;5048629;28;19971;-83
2022/06/02 09:31:22;;;;;;;;;;;42.80;58.90;;;;;;5076532;28;19917;-82
2022/06/02 09:34:05;;;;;;;;;;;43.80;60.70;;;;;;5052635;28;19967;-83
2022/06/02 09:36:31;;;;;;;;;;;45.00;62.50;;;;;;5074413;28;20351;-82
2022/06/02 09:39:09;;;;;;;;;;;45.70;62.00;;;;;;5069732;28;19913;-82
2022/06/02 09:42:00;;;;;;;;;;;46.30;61.80;;;;;;5049878;28;19952;-82
2022/06/02 09:44:27;;;;;;;;;;;46.80;61.60;;;;;;5058825;28;20391;-82
2022/06/02 09:47:11;;;;;;;;;;;47.30;61.50;;;;;;5052846;28;19987;-84
2022/06/02 09:49:55;;;;;;;;;;;47.10;58.90;;;;;;5069514;28;20042;-84
2022/06/02 09:52:24;;;;;;;;;;;46.60;56.10;;;;;;5066415;28;19939;-82
2022/06/02 09:55:13;;;;;;;;;;;46.20;53.50;;;;;;5059167;28;19913;-83
2022/06/02 09:57:58;;;;;;;;;;;44.40;49.40;;;;;;5048907;28;19916;-84
2022/06/02 10:00:26;;;;;;;;;;;44.80;49.50;;;;;;5044561;28;19913;-83
2022/06/02 10:03:09;;;;;;;;;;;44.20;48.80;;;;;;5061370;28;19924;-84
2022/06/02 10:05:34;;;;;;;;;;;44.70;49.40;;;;;;5040736;28;19913;-83
2022/06/02 10:08:15;;;;;;;;;;;44.50;48.40;;;;;;5064874;28;19947;-84
2022/06/02 10:10:59;;;;;;;;;;;45.00;49.70;;;;;;5060717;28;19927;-83
2022/06/02 10:13:33;;;;;;;;;;;45.40;51.00;;;;;;5055896;28;19912;-82
2022/06/02 10:16:17;;;;;;;;;;;44.20;48.10;;;;;;5040018;28;19924;-83
2022/06/02 10:18:55;;;;;;;;;;;43.60;47.00;;;;;;5054971;28;19920;-83
2022/06/02 10:21:39;;;;;;;;;;;41.80;43.30;;;;;;5059675;28;19916;-83
2022/06/02 10:24:04;;;;;;;;;;;42.20;45.80;;;;;;5041883;28;19920;-83
2022/06/02 10:26:48;;;;;;;;;;;42.10;44.80;;;;;;5059561;28;19914;-83
2022/06/02 10:29:16;;;;;;;;;;;42.60;46.20;;;;;;5058421;28;19982;-83
2022/06/02 10:32:01;;;;;;;;;;;40.60;40.50;;;;;;5039237;28;19921;-83
2022/06/02 10:34:39;;;;;;;;;;;39.20;38.70;;;;;;5034212;28;19985;-82
2022/06/02 10:37:23;;;;;;;;;;;39.90;42.60;;;;;;5062054;28;19920;-83
2022/06/02 10:40:01;;;;;;;;;;;39.10;39.90;;;;;;5048291;28;19983;-83
2022/06/02 10:42:39;;;;;;;;;;;39.40;41.10;;;;;;5037297;28;19955;-83
2022/06/02 10:45:05;;;;;;;;;;;39.40;43.90;;;;;;5044775;28;19924;-82
2022/06/02 10:47:44;;;;;;;;;;;38.70;42.50;;;;;;5055832;28;19916;-83
2022/06/02 10:50:09;;;;;;;;;;;39.60;45.50;;;;;;5057908;28;19921;-83
2022/06/02 10:52:41;;;;;;;;;;;40.80;48.30;;;;;;5046906;28;20038;-83
2022/06/02 10:55:12;;;;;;;;;;;41.50;50.40;;;;;;5054456;28;19916;-83
2022/06/02 10:57:45;;;;;;;;;;;41.60;50.90;;;;;;5037592;28;20287;-83
2022/06/02 11:00:15;;;;;;;;;;;41.40;50.50;;;;;;5038722;28;19956;-83
2022/06/02 11:02:46;;;;;;;;;;;41.70;50.20;;;;;;5051703;28;19971;-82
2022/06/02 11:05:12;;;;;;;;;;;41.80;50.80;;;;;;5056749;28;19913;-84
2022/06/02 11:07:40;;;;;;;;;;;41.50;49.90;;;;;;5041105;28;19919;-84
2022/06/02 11:10:12;;;;;;;;;;;41.60;49.90;;;;;;5061995;28;21080;-85
2022/06/02 11:12:37;;;;;;;;;;;41.50;49.40;;;;;;5048882;28;19945;-82
2022/06/02 11:15:15;;;;;;;;;;;39.60;44.80;;;;;;5048370;28;20007;-83
2022/06/02 11:17:55;;;;;;;;;;;39.20;43.80;;;;;;5051741;28;19928;-84
2022/06/02 11:20:24;;;;;;;;;;;38.90;44.20;;;;;;5065535;28;19901;-83
2022/06/02 11:23:00;;;;;;;;;;;38.30;43.50;;;;;;5040914;28;20452;-84
2022/06/02 11:25:44;;;;;;;;;;;38.50;44.40;;;;;;5041474;28;20405;-83
2022/06/02 11:28:19;;;;;;;;;;;38.90;45.10;;;;;;5057058;28;19963;-82
2022/06/02 11:30:54;;;;;;;;;;;37.20;41.80;;;;;;5036424;28;19924;-81
2022/06/02 11:33:29;;;;;;;;;;;35.50;38.30;;;;;;5054943;28;19928;-83
2022/06/02 11:36:14;;;;;;;;;;;35.70;39.10;;;;;;5055336;28;19917;-82
2022/06/02 11:38:53;;;;;;;;;;;35.10;38.80;;;;;;5032362;28;19913;-82
2022/06/02 11:41:33;;;;;;;;;;;33.80;35.80;;;;;;5054723;28;19912;-83
2022/06/02 11:44:05;;;;;;;;;;;34.00;38.50;;;;;;5048252;28;19912;-83
2022/06/02 11:46:49;;;;;;;;;;;33.70;38.60;;;;;;5051146;28;20031;-83
2022/06/02 11:49:29;;;;;;;;;;;34.00;40.80;;;;;;5044164;28;19917;-84
2022/06/02 11:52:13;;;;;;;;;;;34.90;44.70;;;;;;5034145;28;19921;-82
2022/06/02 11:54:47;;;;;;;;;;;34.00;42.30;;;;;;5052485;28;19916;-83
2022/06/02 11:57:21;;;;;;;;;;;33.60;41.20;;;;;;5049730;28;19920;-82
2022/06/02 12:00:00;;;;;;;;;;;33.80;44.00;;;;;;5030592;28;19913;-81
2022/06/02 12:05:36;;;;;;;;;;;33.00;41.90;;;;;;4081404;26;19933;-81
2022/06/02 12:08:21;;;;;;;;;;;;;;;;;;;;;
2022/06/02 12:11:08;;;;;;;;;;;33.00;42.70;;;;;;5033000;28;19921;-81
2022/06/02 12:13:40;;;;;;;;;;;32.60;41.20;;;;;;5030839;28;19917;-81
2022/06/02 12:16:09;;;;;;;;;;;32.20;41.90;;;;;;5031786;28;19921;-82
2022/06/02 12:18:56;;;;;;;;;;;32.60;43.30;;;;;;5016160;28;19913;-82
2022/06/02 12:21:25;;;;;;;;;;;33.50;46.50;;;;;;5028685;28;19952;-82
2022/06/02 12:24:08;;;;;;;;;;;33.60;48.00;;;;;;5014643;28;19917;-82
2022/06/02 12:26:42;;;;;;;;;;;33.50;48.40;;;;;;5027888;28;19924;-81
2022/06/02 12:29:11;;;;;;;;;;;33.90;50.00;;;;;;5032126;28;19921;-82
2022/06/02 12:31:39;;;;;;;;;;;33.70;49.30;;;;;;5014606;28;19952;-81
2022/06/02 12:34:14;;;;;;;;;;;33.20;49.50;;;;;;5031461;28;19924;-78
2022/06/02 12:36:49;;;;;;;;;;;32.90;48.10;;;;;;5029058;28;19916;-81
2022/06/02 12:39:24;;;;;;;;;;;32.30;45.80;;;;;;5034497;28;19921;-82
2022/06/02 12:42:08;;;;;;;;;;;31.20;43.00;;;;;;5041056;28;20428;-82
2022/06/02 12:44:55;;;;;;;;;;;31.20;43.70;;;;;;5041732;28;19967;-82
2022/06/02 12:47:33;;;;;;;;;;;30.70;42.80;;;;;;5031206;28;19913;-82
2022/06/02 12:50:22;;;;;;;;;;;30.40;42.80;;;;;;5043495;28;19925;-82
2022/06/02 12:53:06;;;;;;;;;;;30.30;44.10;;;;;;4982884;28;20427;-82
2022/06/02 12:58:30;;;;;;;;;;;31.60;49.20;;;;;;5031903;28;20015;-83
2022/06/02 13:01:07;;;;;;;;;;;31.60;51.30;;;;;;5038104;28;19920;-82
2022/06/02 13:03:45;;;;;;;;;;;31.40;50.90;;;;;;5037151;28;19923;-82
2022/06/02 13:06:13;;;;;;;;;;;31.70;50.80;;;;;;5038207;28;20011;-82
2022/06/02 13:08:47;;;;;;;;;;;32.30;53.00;;;;;;5039497;28;19920;-81
2022/06/02 13:11:35;;;;;;;;;;;32.60;54.40;;;;;;5044944;28;20012;-81
2022/06/02 13:14:17;;;;;;;;;;;32.80;54.90;;;;;;5038957;28;20367;-84
2022/06/02 13:16:43;;;;;;;;;;;31.30;51.20;;;;;;5039947;28;19936;-82
2022/06/02 13:19:27;;;;;;;;;;;30.60;48.60;;;;;;5039222;28;19913;-84
2022/06/02 13:22:05;;;;;;;;;;;;;;;;;;;;;
2022/06/02 13:25:06;;;;;;;;;;;29.50;46.40;;;;;;5038386;28;19980;-84
2022/06/02 13:27:41;;;;;;;;;;;29.50;46.90;;;;;;4998327;28;19936;-84
2022/06/02 13:30:25;;;;;;;;;;;29.80;48.90;;;;;;5023104;28;20372;-83
2022/06/02 13:33:07;;;;;;;;;;;29.80;49.30;;;;;;5026555;28;19913;-82
2022/06/02 13:35:35;;;;;;;;;;;29.60;50.70;;;;;;5049471;28;19920;-84
2022/06/02 13:38:20;;;;;;;;;;;29.40;49.60;;;;;;5026190;28;20402;-84
2022/06/02 13:41:10;;;;;;;;;;;29.30;49.10;;;;;;5023728;28;19917;-84
2022/06/02 13:43:41;;;;;;;;;;;29.30;49.60;;;;;;5040970;28;19913;-83
2022/06/02 13:46:42;;;;;;;;;;;;;;;;;;;;;
2022/06/02 13:49:20;;;;;;;;;;;29.80;51.30;;;;;;5041698;28;19980;-84
2022/06/02 13:52:23;;;;;;;;;;;;;;;;;;;;;
2022/06/02 14:00:49;;;;;;;;;;;27.70;47.40;;;;;;5036175;28;20324;-83
2022/06/02 14:09:54;;;;;;;;;;;26.60;45.80;;;;;;4975417;28;19964;-83
2022/06/02 14:50:51;;;;;;;;;;;26.40;55.10;;;;;;5037898;28;19929;-84
2022/06/02 14:53:16;;;;;;;;;;;26.50;56.00;;;;;;5020974;28;19959;-84
2022/06/02 14:56:02;;;;;;;;;;;26.40;56.70;;;;;;5031654;28;20004;-84
2022/06/02 14:58:45;;;;;;;;;;;26.10;55.70;;;;;;5019607;28;19920;-83
2022/06/02 15:01:26;;;;;;;;;;;26.00;54.60;;;;;;5024125;28;20590;-85
2022/06/02 15:04:02;;;;;;;;;;;25.80;55.00;;;;;;5034927;28;19913;-84
2022/06/02 15:06:49;;;;;;;;;;;25.60;55.70;;;;;;5027079;28;20389;-83
2022/06/02 15:09:17;;;;;;;;;;;25.80;56.00;;;;;;5024570;28;19980;-83
2022/06/02 15:12:00;;;;;;;;;;;25.60;55.20;;;;;;5021714;28;19930;-83
2022/06/02 15:14:35;;;;;;;;;;;25.50;56.90;;;;;;5020940;28;19914;-83
2022/06/02 15:17:01;;;;;;;;;;;25.40;55.90;;;;;;5014136;28;19988;-83
2022/06/02 15:19:26;;;;;;;;;;;25.20;56.10;;;;;;5017429;28;19924;-83
2022/06/02 15:22:04;;;;;;;;;;;25.10;55.20;;;;;;5018231;28;20429;-83
2022/06/02 15:24:42;;;;;;;;;;;25.10;56.50;;;;;;5005396;28;19988;-83
2022/06/02 15:27:16;;;;;;;;;;;25.20;57.10;;;;;;5003233;28;19917;-83
2022/06/02 15:29:50;;;;;;;;;;;25.40;58.30;;;;;;5024411;28;19913;-83
2022/06/02 15:32:16;;;;;;;;;;;25.40;58.50;;;;;;5020425;28;19928;-82
2022/06/02 15:34:52;;;;;;;;;;;25.20;58.40;;;;;;5022687;28;19973;-83
2022/06/02 15:37:29;;;;;;;;;;;25.20;58.50;;;;;;5015685;28;19922;-83
2022/06/02 15:40:14;;;;;;;;;;;25.20;58.40;;;;;;5003424;28;19968;-83
2022/06/02 15:42:42;;;;;;;;;;;25.00;58.00;;;;;;5024125;28;20357;-83
2022/06/02 15:45:18;;;;;;;;;;;24.70;57.20;;;;;;5021188;28;20073;-83
2022/06/02 15:48:03;;;;;;;;;;;24.60;57.60;;;;;;5020384;28;19940;-83
2022/06/02 15:50:47;;;;;;;;;;;24.80;60.10;;;;;;5018413;28;19917;-84
2022/06/02 15:53:26;;;;;;;;;;;24.70;59.60;;;;;;5019096;28;19935;-84
2022/06/02 15:55:55;;;;;;;;;;;24.50;58.50;;;;;;5003763;28;19963;-82
2022/06/02 15:58:39;;;;;;;;;;;24.30;59.40;;;;;;5012733;28;19922;-83
2022/06/02 16:01:16;;;;;;;;;;;24.40;59.80;;;;;;5020314;28;19920;-83
2022/06/02 16:03:57;;;;;;;;;;;24.10;57.30;;;;;;5014213;28;19914;-83
2022/06/02 16:06:43;;;;;;;;;;;23.80;57.50;;;;;;5016778;28;19913;-84
2022/06/02 16:11:59;;;;;;;;;;;23.70;57.90;;;;;;5008214;28;19924;-84
2022/06/02 16:14:39;;;;;;;;;;;23.70;59.50;;;;;;5019493;28;19914;-84
2022/06/02 16:17:28;;;;;;;;;;;23.90;60.40;;;;;;5015516;28;19913;-83
2022/06/02 16:20:09;;;;;;;;;;;;;;;;;;;;;
2022/06/02 16:22:37;;;;;;;;;;;23.90;61.50;;;;;;5012904;28;20000;-84
2022/06/02 16:25:17;;;;;;;;;;;23.80;61.50;;;;;;5023053;28;19949;-83
2022/06/02 16:27:56;;;;;;;;;;;23.80;62.40;;;;;;5015162;28;19913;-84
2022/06/02 16:30:29;;;;;;;;;;;23.70;61.30;;;;;;5025255;28;19956;-84